sensor_id;sensor_type;location;lat;lon;timestamp;pressure;altitude;pressure_sealevel;temperature;humidity
17505;BME280;8870;50.950;11.762;2023-05-09T00:02:30;98829.88;;;9.49;100.00
17505;BME280;8870;50.950;11.762;2023-05-09T00:08:02;98833.69;;;9.47;100.00
17505;BME280;8870;50.950;11.762;2023-05-09T00:13:37;98837.38;;;9.46;100.00
17505;BME280;8870;50.950;11.762;2023-05-09T00:18:55;98829.47;;;9.44;100.00
17505;BME280;8870;50.950;11.762;2023-05-09T00:24:27;98819.81;;;9.41;100.00
17505;BME280;8870;50.950;11.762;2023-05-09T00:29:48;98812.78;;;9.40;100.00
17505;BME280;8870;50.950;11.762;2023-05-09T00:35:19;98815.03;;;9.35;100.00
17505;BME280;8870;50.950;11.762;2023-05-09T00:40:37;98812.50;;;9.34;100.00
17505;BME280;8870;50.950;11.762;2023-05-09T00:46:11;98821.97;;;9.38;100.00
17505;BME280;8870;50.950;11.762;2023-05-09T00:51:30;98811.91;;;9.40;100.00
17505;BME280;8870;50.950;11.762;2023-05-09T00:57:01;98806.53;;;9.40;100.00
17505;BME280;8870;50.950;11.762;2023-05-09T01:02:22;98806.13;;;9.35;100.00
17505;BME280;8870;50.950;11.762;2023-05-09T01:08:00;98800.06;;;9.33;100.00
17505;BME280;8870;50.950;11.762;2023-05-09T01:13:24;98798.47;;;9.30;100.00
17505;BME280;8870;50.950;11.762;2023-05-09T01:19:12;98795.66;;;9.32;100.00
17505;BME280;8870;50.950;11.762;2023-05-09T01:24:57;98784.19;;;9.30;100.00
17505;BME280;8870;50.950;11.762;2023-05-09T01:30:34;98779.81;;;9.29;100.00
17505;BME280;8870;50.950;11.762;2023-05-09T01:35:58;98789.84;;;9.27;100.00
17505;BME280;8870;50.950;11.762;2023-05-09T01:41:35;98780.97;;;9.26;100.00
17505;BME280;8870;50.950;11.762;2023-05-09T01:46:58;98789.56;;;9.20;100.00
17505;BME280;8870;50.950;11.762;2023-05-09T01:52:31;98782.81;;;9.16;100.00
17505;BME280;8870;50.950;11.762;2023-05-09T01:57:50;98782.53;;;9.09;100.00
17505;BME280;8870;50.950;11.762;2023-05-09T02:03:24;98766.69;;;9.06;100.00
17505;BME280;8870;50.950;11.762;2023-05-09T02:08:49;98768.66;;;9.04;100.00
17505;BME280;8870;50.950;11.762;2023-05-09T02:14:21;98754.50;;;9.02;100.00
17505;BME280;8870;50.950;11.762;2023-05-09T02:19:42;98759.06;;;9.01;100.00
17505;BME280;8870;50.950;11.762;2023-05-09T02:25:15;98753.13;;;8.98;100.00
17505;BME280;8870;50.950;11.762;2023-05-09T02:30:37;98755.38;;;8.92;100.00
17505;BME280;8870;50.950;11.762;2023-05-09T02:36:13;98755.66;;;8.89;100.00
17505;BME280;8870;50.950;11.762;2023-05-09T02:41:31;98750.44;;;8.88;100.00
17505;BME280;8870;50.950;11.762;2023-05-09T02:47:04;98759.75;;;8.84;100.00
17505;BME280;8870;50.950;11.762;2023-05-09T02:52:26;98755.69;;;8.79;100.00
17505;BME280;8870;50.950;11.762;2023-05-09T02:57:58;98757.94;;;8.74;100.00
17505;BME280;8870;50.950;11.762;2023-05-09T03:03:22;98760.31;;;8.68;100.00
17505;BME280;8870;50.950;11.762;2023-05-09T03:08:57;98752.84;;;8.61;100.00
17505;BME280;8870;50.950;11.762;2023-05-09T03:14:15;98746.31;;;8.54;100.00
17505;BME280;8870;50.950;11.762;2023-05-09T03:19:47;98744.34;;;8.46;100.00
17505;BME280;8870;50.950;11.762;2023-05-09T03:25:08;98741.47;;;8.38;100.00
17505;BME280;8870;50.950;11.762;2023-05-09T03:30:39;98732.41;;;8.29;100.00
17505;BME280;8870;50.950;11.762;2023-05-09T03:36:00;98734.53;;;8.26;100.00
17505;BME280;8870;50.950;11.762;2023-05-09T03:41:34;98741.31;;;8.20;100.00
17505;BME280;8870;50.950;11.762;2023-05-09T03:46:53;98728.44;;;8.14;100.00
17505;BME280;8870;50.950;11.762;2023-05-09T03:52:23;98738.88;;;8.07;100.00
17505;BME280;8870;50.950;11.762;2023-05-09T03:57:45;98738.59;;;8.00;100.00
17505;BME280;8870;50.950;11.762;2023-05-09T04:03:18;98735.59;;;7.94;100.00
17505;BME280;8870;50.950;11.762;2023-05-09T04:08:44;98724.88;;;7.94;100.00
17505;BME280;8870;50.950;11.762;2023-05-09T04:14:17;98723.72;;;7.96;100.00
17505;BME280;8870;50.950;11.762;2023-05-09T04:19:36;98727.28;;;7.97;100.00
17505;BME280;8870;50.950;11.762;2023-05-09T04:25:08;98728.97;;;7.98;100.00
17505;BME280;8870;50.950;11.762;2023-05-09T04:30:29;98727.28;;;7.97;100.00
17505;BME280;8870;50.950;11.762;2023-05-09T04:36:01;98731.50;;;7.99;100.00
17505;BME280;8870;50.950;11.762;2023-05-09T04:41:20;98728.69;;;8.01;100.00
17505;BME280;8870;50.950;11.762;2023-05-09T04:46:59;98716.56;;;8.07;100.00
17505;BME280;8870;50.950;11.762;2023-05-09T04:52:20;98724.22;;;8.11;100.00
17505;BME280;8870;50.950;11.762;2023-05-09T04:57:53;98719.00;;;8.20;100.00
17505;BME280;8870;50.950;11.762;2023-05-09T05:03:14;98704.88;;;8.27;100.00
17505;BME280;8870;50.950;11.762;2023-05-09T05:08:49;98702.78;;;8.41;100.00
17505;BME280;8870;50.950;11.762;2023-05-09T05:14:25;98703.50;;;8.53;100.00
17505;BME280;8870;50.950;11.762;2023-05-09T05:19:51;98699.41;;;8.68;100.00
17505;BME280;8870;50.950;11.762;2023-05-09T05:25:26;98690.88;;;8.83;100.00
17505;BME280;8870;50.950;11.762;2023-05-09T05:30:46;98685.94;;;8.98;100.00
17505;BME280;8870;50.950;11.762;2023-05-09T05:36:23;98681.50;;;9.16;100.00
17505;BME280;8870;50.950;11.762;2023-05-09T05:41:42;98684.13;;;9.36;100.00
17505;BME280;8870;50.950;11.762;2023-05-09T05:47:14;98679.38;;;9.58;100.00
17505;BME280;8870;50.950;11.762;2023-05-09T05:52:36;98671.38;;;9.76;100.00
17505;BME280;8870;50.950;11.762;2023-05-09T05:58:10;98677.16;;;9.99;100.00
17505;BME280;8870;50.950;11.762;2023-05-09T06:03:31;98672.25;;;10.12;100.00
17505;BME280;8870;50.950;11.762;2023-05-09T06:09:10;98682.59;;;10.35;100.00
17505;BME280;8870;50.950;11.762;2023-05-09T06:14:45;98675.94;;;10.57;100.00
17505;BME280;8870;50.950;11.762;2023-05-09T06:20:05;98666.44;;;10.71;100.00
17505;BME280;8870;50.950;11.762;2023-05-09T06:25:43;98662.31;;;10.85;100.00
17505;BME280;8870;50.950;11.762;2023-05-09T06:31:03;98650.50;;;11.04;100.00
17505;BME280;8870;50.950;11.762;2023-05-09T06:36:39;98642.72;;;11.28;100.00
17505;BME280;8870;50.950;11.762;2023-05-09T06:41:59;98640.59;;;11.48;100.00
17505;BME280;8870;50.950;11.762;2023-05-09T06:47:31;98625.19;;;11.66;100.00
17505;BME280;8870;50.950;11.762;2023-05-09T06:52:50;98622.69;;;11.90;100.00
17505;BME280;8870;50.950;11.762;2023-05-09T06:58:24;98617.88;;;12.10;100.00
17505;BME280;8870;50.950;11.762;2023-05-09T07:03:43;98606.09;;;12.36;100.00
17505;BME280;8870;50.950;11.762;2023-05-09T07:09:14;98602.38;;;12.53;100.00
17505;BME280;8870;50.950;11.762;2023-05-09T07:14:37;98594.25;;;12.78;100.00
17505;BME280;8870;50.950;11.762;2023-05-09T07:20:09;98603.84;;;12.97;100.00
17505;BME280;8870;50.950;11.762;2023-05-09T07:25:27;98597.38;;;13.23;100.00
17505;BME280;8870;50.950;11.762;2023-05-09T07:30:54;98592.91;;;13.47;100.00
17505;BME280;8870;50.950;11.762;2023-05-09T07:36:26;98587.19;;;13.73;100.00
17505;BME280;8870;50.950;11.762;2023-05-09T07:41:45;98573.03;;;13.94;100.00
17505;BME280;8870;50.950;11.762;2023-05-09T07:47:19;98571.66;;;14.22;100.00
17505;BME280;8870;50.950;11.762;2023-05-09T07:52:37;98558.91;;;14.45;100.00
17505;BME280;8870;50.950;11.762;2023-05-09T07:58:08;98545.34;;;14.69;100.00
17505;BME280;8870;50.950;11.762;2023-05-09T08:03:29;98548.19;;;14.90;100.00
17505;BME280;8870;50.950;11.762;2023-05-09T08:09:01;98529.47;;;15.10;100.00
17505;BME280;8870;50.950;11.762;2023-05-09T08:14:20;98524.78;;;15.34;100.00
17505;BME280;8870;50.950;11.762;2023-05-09T08:19:54;98522.75;;;15.58;100.00
17505;BME280;8870;50.950;11.762;2023-05-09T08:25:13;98522.31;;;15.76;100.00
17505;BME280;8870;50.950;11.762;2023-05-09T08:30:44;98508.91;;;15.90;100.00
17505;BME280;8870;50.950;11.762;2023-05-09T08:36:06;98502.63;;;16.11;100.00
17505;BME280;8870;50.950;11.762;2023-05-09T08:41:37;98488.78;;;16.27;100.00
17505;BME280;8870;50.950;11.762;2023-05-09T08:46:58;98481.94;;;16.38;100.00
17505;BME280;8870;50.950;11.762;2023-05-09T08:52:34;98480.41;;;16.57;92.92
17505;BME280;8870;50.950;11.762;2023-05-09T08:57:53;98477.38;;;16.74;100.00
17505;BME280;8870;50.950;11.762;2023-05-09T09:03:25;98472.34;;;17.06;100.00
17505;BME280;8870;50.950;11.762;2023-05-09T09:08:47;98462.78;;;17.23;100.00
17505;BME280;8870;50.950;11.762;2023-05-09T09:14:22;98457.81;;;17.40;95.21
17505;BME280;8870;50.950;11.762;2023-05-09T09:19:43;98458.72;;;17.54;97.02
17505;BME280;8870;50.950;11.762;2023-05-09T09:25:17;98443.66;;;17.79;96.45
17505;BME280;8870;50.950;11.762;2023-05-09T09:30:42;98443.66;;;17.92;94.91
17505;BME280;8870;50.950;11.762;2023-05-09T09:36:13;98432.38;;;18.02;87.07
17505;BME280;8870;50.950;11.762;2023-05-09T09:41:35;98421.50;;;18.22;83.74
17505;BME280;8870;50.950;11.762;2023-05-09T09:47:09;98422.50;;;18.35;77.14
17505;BME280;8870;50.950;11.762;2023-05-09T09:52:27;98407.16;;;18.47;84.63
17505;BME280;8870;50.950;11.762;2023-05-09T09:58:01;98390.75;;;18.60;80.70
17505;BME280;8870;50.950;11.762;2023-05-09T10:03:20;98394.31;;;18.74;77.49
17505;BME280;8870;50.950;11.762;2023-05-09T10:08:51;98390.69;;;18.94;72.25
17505;BME280;8870;50.950;11.762;2023-05-09T10:14:25;98393.56;;;19.06;74.32
17505;BME280;8870;50.950;11.762;2023-05-09T10:19:45;98371.22;;;19.22;69.52
17505;BME280;8870;50.950;11.762;2023-05-09T10:25:20;98366.50;;;19.36;71.11
17505;BME280;8870;50.950;11.762;2023-05-09T10:30:48;98366.47;;;19.43;71.98
17505;BME280;8870;50.950;11.762;2023-05-09T10:36:23;98358.75;;;19.65;64.21
17505;BME280;8870;50.950;11.762;2023-05-09T10:41:42;98360.38;;;19.73;62.60
17505;BME280;8870;50.950;11.762;2023-05-09T10:47:18;98349.16;;;19.81;61.21
17505;BME280;8870;50.950;11.762;2023-05-09T10:53:03;98341.94;;;19.94;58.38
17505;BME280;8870;50.950;11.762;2023-05-09T10:58:38;98332.19;;;20.05;56.86
17505;BME280;8870;50.950;11.762;2023-05-09T11:04:11;98319.25;;;20.12;50.79
17505;BME280;8870;50.950;11.762;2023-05-09T11:09:44;98311.19;;;20.17;50.13
17505;BME280;8870;50.950;11.762;2023-05-09T11:15:06;98296.78;;;20.28;52.87
17505;BME280;8870;50.950;11.762;2023-05-09T11:20:45;98286.91;;;20.46;52.57
17505;BME280;8870;50.950;11.762;2023-05-09T11:26:06;98271.53;;;20.63;53.47
17505;BME280;8870;50.950;11.762;2023-05-09T11:32:03;98256.91;;;20.70;51.65
17505;BME280;8870;50.950;11.762;2023-05-09T11:37:30;98263.13;;;20.96;51.16
17505;BME280;8870;50.950;11.762;2023-05-09T11:43:01;98258.38;;;21.03;49.11
17505;BME280;8870;50.950;11.762;2023-05-09T11:48:20;98241.13;;;21.14;48.09
17505;BME280;8870;50.950;11.762;2023-05-09T11:53:55;98219.72;;;21.23;45.62
17505;BME280;8870;50.950;11.762;2023-05-09T11:59:14;98211.16;;;21.43;47.76
17505;BME280;8870;50.950;11.762;2023-05-09T12:04:46;98214.75;;;21.55;46.38
17505;BME280;8870;50.950;11.762;2023-05-09T12:10:11;98192.00;;;21.67;43.21
17505;BME280;8870;50.950;11.762;2023-05-09T12:15:44;98184.84;;;21.78;42.87
17505;BME280;8870;50.950;11.762;2023-05-09T12:21:03;98179.44;;;21.95;43.83
17505;BME280;8870;50.950;11.762;2023-05-09T12:26:38;98162.84;;;22.13;42.50
17505;BME280;8870;50.950;11.762;2023-05-09T12:31:57;98157.91;;;22.27;41.49
17505;BME280;8870;50.950;11.762;2023-05-09T12:37:30;98151.25;;;22.52;42.97
17505;BME280;8870;50.950;11.762;2023-05-09T12:42:52;98145.75;;;22.81;44.50
17505;BME280;8870;50.950;11.762;2023-05-09T12:48:25;98126.00;;;23.01;42.96
17505;BME280;8870;50.950;11.762;2023-05-09T12:53:44;98128.03;;;23.23;43.87
17505;BME280;8870;50.950;11.762;2023-05-09T12:59:19;98111.69;;;23.50;41.96
17505;BME280;8870;50.950;11.762;2023-05-09T13:04:45;98107.72;;;23.63;40.18
17505;BME280;8870;50.950;11.762;2023-05-09T13:10:18;98094.88;;;23.91;40.43
17505;BME280;8870;50.950;11.762;2023-05-09T13:15:40;98085.22;;;24.11;41.09
17505;BME280;8870;50.950;11.762;2023-05-09T13:21:12;98084.09;;;24.34;39.96
17505;BME280;8870;50.950;11.762;2023-05-09T13:26:31;98080.47;;;24.56;39.07
17505;BME280;8870;50.950;11.762;2023-05-09T13:32:04;98075.50;;;24.85;39.78
17505;BME280;8870;50.950;11.762;2023-05-09T13:37:25;98072.44;;;25.19;38.77
17505;BME280;8870;50.950;11.762;2023-05-09T13:42:58;98049.34;;;25.36;38.63
17505;BME280;8870;50.950;11.762;2023-05-09T13:48:18;98037.88;;;25.49;38.79
17505;BME280;8870;50.950;11.762;2023-05-09T13:53:50;98042.81;;;25.42;33.38
17505;BME280;8870;50.950;11.762;2023-05-09T13:59:08;98039.22;;;25.42;35.74
17505;BME280;8870;50.950;11.762;2023-05-09T14:04:42;98032.19;;;25.72;33.22
17505;BME280;8870;50.950;11.762;2023-05-09T14:10:02;98039.25;;;26.15;33.95
17505;BME280;8870;50.950;11.762;2023-05-09T14:15:34;98027.13;;;26.17;32.18
17505;BME280;8870;50.950;11.762;2023-05-09T14:20:55;98018.84;;;26.58;33.03
17505;BME280;8870;50.950;11.762;2023-05-09T14:26:28;98017.78;;;26.85;31.81
17505;BME280;8870;50.950;11.762;2023-05-09T14:31:50;98016.09;;;26.84;31.79
17505;BME280;8870;50.950;11.762;2023-05-09T14:37:23;98006.66;;;27.00;29.22
17505;BME280;8870;50.950;11.762;2023-05-09T14:42:50;98002.25;;;26.68;27.88
17505;BME280;8870;50.950;11.762;2023-05-09T14:48:23;97990.66;;;26.97;28.47
17505;BME280;8870;50.950;11.762;2023-05-09T14:53:43;97977.13;;;26.90;28.70
17505;BME280;8870;50.950;11.762;2023-05-09T14:59:19;97974.63;;;26.89;28.95
17505;BME280;8870;50.950;11.762;2023-05-09T15:04:37;97962.50;;;26.85;29.97
17505;BME280;8870;50.950;11.762;2023-05-09T15:10:11;97966.88;;;27.01;30.17
17505;BME280;8870;50.950;11.762;2023-05-09T15:15:30;97954.72;;;26.92;32.03
17505;BME280;8870;50.950;11.762;2023-05-09T15:21:02;97955.31;;;26.58;31.41
17505;BME280;8870;50.950;11.762;2023-05-09T15:26:36;97939.88;;;26.15;29.70
17505;BME280;8870;50.950;11.762;2023-05-09T15:31:55;97940.41;;;26.33;31.39
17505;BME280;8870;50.950;11.762;2023-05-09T15:37:26;97924.38;;;26.30;30.81
17505;BME280;8870;50.950;11.762;2023-05-09T15:42:47;97912.22;;;26.46;30.52
17505;BME280;8870;50.950;11.762;2023-05-09T15:48:22;97917.19;;;26.44;30.74
17505;BME280;8870;50.950;11.762;2023-05-09T15:53:41;97914.44;;;26.34;30.46
17505;BME280;8870;50.950;11.762;2023-05-09T15:59:14;97914.19;;;26.46;29.94
17505;BME280;8870;50.950;11.762;2023-05-09T16:04:33;97908.06;;;26.65;30.86
17505;BME280;8870;50.950;11.762;2023-05-09T16:10:06;97892.38;;;26.13;29.07
17505;BME280;8870;50.950;11.762;2023-05-09T16:15:27;97889.06;;;26.11;30.73
17505;BME280;8870;50.950;11.762;2023-05-09T16:20:58;97881.34;;;26.13;30.69
17505;BME280;8870;50.950;11.762;2023-05-09T16:26:16;97872.16;;;25.51;29.99
17505;BME280;8870;50.950;11.762;2023-05-09T16:31:49;97861.22;;;24.98;29.05
17505;BME280;8870;50.950;11.762;2023-05-09T16:37:08;97864.66;;;24.72;30.80
17505;BME280;8870;50.950;11.762;2023-05-09T16:42:41;97854.88;;;24.49;30.46
17505;BME280;8870;50.950;11.762;2023-05-09T16:48:02;97840.22;;;24.38;31.19
17505;BME280;8870;50.950;11.762;2023-05-09T16:53:33;97837.22;;;24.45;31.95
17505;BME280;8870;50.950;11.762;2023-05-09T16:58:51;97841.63;;;24.46;32.16
17505;BME280;8870;50.950;11.762;2023-05-09T17:04:24;97827.53;;;24.37;31.32
17505;BME280;8870;50.950;11.762;2023-05-09T17:09:45;97822.31;;;24.41;32.86
17505;BME280;8870;50.950;11.762;2023-05-09T17:15:17;97815.72;;;24.42;32.43
17505;BME280;8870;50.950;11.762;2023-05-09T17:20:45;97813.06;;;24.09;32.71
17505;BME280;8870;50.950;11.762;2023-05-09T17:26:16;97808.66;;;23.76;33.13
17505;BME280;8870;50.950;11.762;2023-05-09T17:31:34;97808.28;;;23.67;33.71
17505;BME280;8870;50.950;11.762;2023-05-09T17:37:07;97804.66;;;23.61;33.61
17505;BME280;8870;50.950;11.762;2023-05-09T17:42:26;97785.41;;;23.61;34.56
17505;BME280;8870;50.950;11.762;2023-05-09T17:47:58;97793.06;;;23.54;34.36
17505;BME280;8870;50.950;11.762;2023-05-09T17:53:20;97800.13;;;23.45;35.24
17505;BME280;8870;50.950;11.762;2023-05-09T17:58:52;97800.50;;;23.26;34.47
17505;BME280;8870;50.950;11.762;2023-05-09T18:04:10;97798.78;;;22.98;35.83
17505;BME280;8870;50.950;11.762;2023-05-09T18:09:45;97806.66;;;22.44;35.43
17505;BME280;8870;50.950;11.762;2023-05-09T18:15:17;97801.81;;;21.95;36.37
17505;BME280;8870;50.950;11.762;2023-05-09T18:20:35;97794.69;;;21.60;37.27
17505;BME280;8870;50.950;11.762;2023-05-09T18:26:10;97791.72;;;21.04;37.98
17505;BME280;8870;50.950;11.762;2023-05-09T18:31:28;97803.63;;;20.69;38.04
17505;BME280;8870;50.950;11.762;2023-05-09T18:37:02;97799.72;;;20.41;38.81
17505;BME280;8870;50.950;11.762;2023-05-09T18:42:25;97801.31;;;20.01;40.07
17505;BME280;8870;50.950;11.762;2023-05-09T18:47:56;97789.25;;;19.54;40.98
17505;BME280;8870;50.950;11.762;2023-05-09T18:53:14;97811.84;;;19.19;41.50
17505;BME280;8870;50.950;11.762;2023-05-09T18:58:50;97794.47;;;18.83;42.83
17505;BME280;8870;50.950;11.762;2023-05-09T19:04:09;97804.75;;;18.51;43.45
17505;BME280;8870;50.950;11.762;2023-05-09T19:09:40;97799.91;;;18.15;44.44
17505;BME280;8870;50.950;11.762;2023-05-09T19:15:02;97800.19;;;17.82;45.53
17505;BME280;8870;50.950;11.762;2023-05-09T19:20:34;97793.50;;;17.52;46.00
17505;BME280;8870;50.950;11.762;2023-05-09T19:25:52;97783.66;;;17.26;46.53
17505;BME280;8870;50.950;11.762;2023-05-09T19:31:27;97785.09;;;16.97;48.28
17505;BME280;8870;50.950;11.762;2023-05-09T19:36:45;97777.94;;;16.63;48.43
17505;BME280;8870;50.950;11.762;2023-05-09T19:42:16;97784.28;;;16.37;50.09
17505;BME280;8870;50.950;11.762;2023-05-09T19:47:38;97784.59;;;16.02;51.33
17505;BME280;8870;50.950;11.762;2023-05-09T19:53:11;97781.06;;;15.75;52.72
17505;BME280;8870;50.950;11.762;2023-05-09T19:58:29;97777.28;;;15.42;54.03
17505;BME280;8870;50.950;11.762;2023-05-09T20:04:03;97770.22;;;15.28;55.50
17505;BME280;8870;50.950;11.762;2023-05-09T20:09:21;97767.47;;;15.07;55.98
17505;BME280;8870;50.950;11.762;2023-05-09T20:14:53;97763.91;;;15.00;57.33
17505;BME280;8870;50.950;11.762;2023-05-09T20:20:21;97766.19;;;14.90;57.52
17505;BME280;8870;50.950;11.762;2023-05-09T20:26:03;97756.78;;;14.79;58.33
17505;BME280;8870;50.950;11.762;2023-05-09T20:31:21;97766.53;;;14.67;59.28
17505;BME280;8870;50.950;11.762;2023-05-09T20:36:56;97752.06;;;14.53;62.82
17505;BME280;8870;50.950;11.762;2023-05-09T20:42:14;97768.75;;;14.49;62.16
17505;BME280;8870;50.950;11.762;2023-05-09T20:47:46;97765.78;;;14.38;66.89
17505;BME280;8870;50.950;11.762;2023-05-09T20:53:07;97761.16;;;14.25;69.85
17505;BME280;8870;50.950;11.762;2023-05-09T20:58:38;97765.06;;;14.15;75.27
17505;BME280;8870;50.950;11.762;2023-05-09T21:03:56;97764.38;;;14.07;76.24
17505;BME280;8870;50.950;11.762;2023-05-09T21:09:32;97755.59;;;13.98;82.08
17505;BME280;8870;50.950;11.762;2023-05-09T21:14:50;97754.91;;;13.89;82.14
17505;BME280;8870;50.950;11.762;2023-05-09T21:20:22;97740.88;;;13.79;86.09
17505;BME280;8870;50.950;11.762;2023-05-09T21:25:43;97743.31;;;13.67;89.06
17505;BME280;8870;50.950;11.762;2023-05-09T21:31:14;97739.09;;;13.58;93.21
17505;BME280;8870;50.950;11.762;2023-05-09T21:36:32;97739.22;;;13.49;93.26
17505;BME280;8870;50.950;11.762;2023-05-09T21:42:06;97737.75;;;13.47;95.62
17505;BME280;8870;50.950;11.762;2023-05-09T21:47:24;97730.59;;;13.39;97.22
17505;BME280;8870;50.950;11.762;2023-05-09T21:52:56;97728.88;;;13.31;100.00
17505;BME280;8870;50.950;11.762;2023-05-09T21:58:17;97721.94;;;13.22;100.00
17505;BME280;8870;50.950;11.762;2023-05-09T22:03:49;97712.09;;;13.14;100.00
17505;BME280;8870;50.950;11.762;2023-05-09T22:09:09;97727.28;;;13.15;98.83
17505;BME280;8870;50.950;11.762;2023-05-09T22:14:43;97721.00;;;13.08;100.00
17505;BME280;8870;50.950;11.762;2023-05-09T22:20:11;97714.94;;;13.06;98.81
17505;BME280;8870;50.950;11.762;2023-05-09T22:25:36;97726.34;;;13.01;100.00
17505;BME280;8870;50.950;11.762;2023-05-09T22:31:06;97721.25;;;12.91;100.00
17505;BME280;8870;50.950;11.762;2023-05-09T22:36:25;97701.06;;;12.87;100.00
17505;BME280;8870;50.950;11.762;2023-05-09T22:41:56;97696.84;;;12.85;100.00
17505;BME280;8870;50.950;11.762;2023-05-09T22:47:19;97697.88;;;12.84;100.00
17505;BME280;8870;50.950;11.762;2023-05-09T22:52:51;97686.03;;;12.85;100.00
17505;BME280;8870;50.950;11.762;2023-05-09T22:58:09;97680.41;;;12.79;100.00
17505;BME280;8870;50.950;11.762;2023-05-09T23:03:45;97686.38;;;12.75;100.00
17505;BME280;8870;50.950;11.762;2023-05-09T23:09:04;97675.97;;;12.72;100.00
17505;BME280;8870;50.950;11.762;2023-05-09T23:14:36;97677.81;;;12.71;100.00
17505;BME280;8870;50.950;11.762;2023-05-09T23:19:58;97670.56;;;12.72;100.00
17505;BME280;8870;50.950;11.762;2023-05-09T23:25:30;97668.88;;;12.71;100.00
17505;BME280;8870;50.950;11.762;2023-05-09T23:30:50;97670.09;;;12.68;100.00
17505;BME280;8870;50.950;11.762;2023-05-09T23:36:24;97670.09;;;12.68;100.00
17505;BME280;8870;50.950;11.762;2023-05-09T23:41:43;97670.28;;;12.67;100.00
17505;BME280;8870;50.950;11.762;2023-05-09T23:47:15;97664.22;;;12.64;100.00
17505;BME280;8870;50.950;11.762;2023-05-09T23:52:36;97656.13;;;12.64;100.00
17505;BME280;8870;50.950;11.762;2023-05-09T23:58:11;97657.19;;;12.63;100.00
